Airfield :
LOGIN :

Register | Disclaimer

   EN    FR    IT 

 










Legend :    VFR   Marginal VFR   IFR   Intensive IFR   Very Intensive IFR
Visi :
Ceiling :
>= 8 km
>= 3000ft
5 to 8 km
1000 to 3000 ft
1500m to 5 km
500 to 1000 ft
800 to 1500m
200 to 500 ft
< 800m
< 200 ft
Symbols :   Thunderstorms  Fog  Heavy snow  Heavy precipitations  Wind > 20 kt
SIGMETs :     Misc.  Thunderstorms  Icing  Turbulence  Mountain Waves  Volcanic Ashes






- Airport Elevation : 256 ft
- IATA code : CFR


LFRK - Caen

CURRENT METAR :
  • 282100Z AUTO 25009KT 9999 //////TCU 07/05 Q1014 TEMPO 26015G25KT 3000 SHRA BKN012 BKN020CB

EXPIRED METARs :
  • 282030Z AUTO 25008KT 9999 ///TCU 07/06 Q1014 TEMPO 26015G25KT 3000 SHRA BKN012 BKN020CB
  • 282000Z AUTO 25010KT 9999 FEW028/// BKN200/// ///CB 07/06 Q1013 TEMPO 26015G25KT 3000 SHRA BKN012 BKN020CB
  • 281930Z AUTO 26011KT 9999 ///CB 08/06 Q1013 TEMPO 26015G25KT 3000 SHRA BKN012 BKN020CB
  • 281900Z AUTO 25011KT 9999 ///TCU 07/06 Q1013 TEMPO 26015G25KT 2000 TSRAGS BKN012 BKN020CB
  • 281830Z AUTO 25010KT 9999 ///CB 07/06 Q1012 TEMPO 26015G25KT 2000 TSRAGS BKN012 BKN020CB

TAF TAF LFRK
Valid from the 28 at 15:00 until the 29 at 00:00 UTC


281400Z 2815/2824 26010KT 9999 SCT030
TEMPO 2815/2824 26015G25KT 3000 SHRA BKN012 BKN020CB
PROB30
TEMPO 2817/2821 2000 TSRAGS
Met : +33 2 31 26 68 11



MET'MAP, your aeronautical weather chart ! - Copyright ORBIFLY December 2007 - Disclaimer

ORBIFLY MET'MAP TEAM :

Programming & Development : Alexandra Zaïnal
Original concept : Baudouin d'Aumeries
Technical & hardware support : Manuel Goepfert
Assistance : Marc-Olivier Méhu




SOURCES & CREDITS :

   NOAA